sensor_id;sensor_type;location;lat;lon;timestamp;P1;durP1;ratioP1;P2;durP2;ratioP2
42726;SDS011;28372;56.832;60.658;2023-02-13T00:00:52;6.10;;;2.10;;
42726;SDS011;28372;56.832;60.658;2023-02-13T00:03:20;5.95;;;2.50;;
42726;SDS011;28372;56.832;60.658;2023-02-13T00:05:48;2.80;;;1.92;;
42726;SDS011;28372;56.832;60.658;2023-02-13T00:08:16;8.27;;;3.72;;
42726;SDS011;28372;56.832;60.658;2023-02-13T00:10:43;6.78;;;2.72;;
42726;SDS011;28372;56.832;60.658;2023-02-13T00:13:14;12.10;;;5.05;;
42726;SDS011;28372;56.832;60.658;2023-02-13T00:15:42;7.30;;;3.60;;
42726;SDS011;28372;56.832;60.658;2023-02-13T00:18:10;11.65;;;4.28;;
42726;SDS011;28372;56.832;60.658;2023-02-13T00:20:37;10.27;;;5.35;;
42726;SDS011;28372;56.832;60.658;2023-02-13T00:23:05;11.80;;;5.78;;
42726;SDS011;28372;56.832;60.658;2023-02-13T00:25:33;10.35;;;4.95;;
42726;SDS011;28372;56.832;60.658;2023-02-13T00:28:00;12.10;;;7.03;;
42726;SDS011;28372;56.832;60.658;2023-02-13T00:30:28;9.30;;;4.38;;
42726;SDS011;28372;56.832;60.658;2023-02-13T00:32:56;10.68;;;5.55;;
42726;SDS011;28372;56.832;60.658;2023-02-13T00:35:23;7.97;;;3.25;;
42726;SDS011;28372;56.832;60.658;2023-02-13T00:37:51;12.32;;;6.60;;
42726;SDS011;28372;56.832;60.658;2023-02-13T00:40:23;10.70;;;6.35;;
42726;SDS011;28372;56.832;60.658;2023-02-13T00:42:51;12.98;;;7.85;;
42726;SDS011;28372;56.832;60.658;2023-02-13T00:45:18;9.88;;;5.47;;
42726;SDS011;28372;56.832;60.658;2023-02-13T00:47:46;11.35;;;4.72;;
42726;SDS011;28372;56.832;60.658;2023-02-13T00:50:13;7.28;;;3.05;;
42726;SDS011;28372;56.832;60.658;2023-02-13T00:52:41;5.95;;;2.80;;
42726;SDS011;28372;56.832;60.658;2023-02-13T00:55:11;13.13;;;6.28;;
42726;SDS011;28372;56.832;60.658;2023-02-13T00:57:39;10.52;;;4.97;;
42726;SDS011;28372;56.832;60.658;2023-02-13T01:00:06;12.48;;;6.00;;
42726;SDS011;28372;56.832;60.658;2023-02-13T01:02:34;12.02;;;5.97;;
42726;SDS011;28372;56.832;60.658;2023-02-13T01:05:02;9.15;;;4.05;;
42726;SDS011;28372;56.832;60.658;2023-02-13T01:07:30;7.95;;;4.03;;
42726;SDS011;28372;56.832;60.658;2023-02-13T01:09:57;10.73;;;3.88;;
42726;SDS011;28372;56.832;60.658;2023-02-13T01:12:25;10.77;;;4.45;;
42726;SDS011;28372;56.832;60.658;2023-02-13T01:14:53;11.55;;;6.32;;
42726;SDS011;28372;56.832;60.658;2023-02-13T01:17:21;14.57;;;7.28;;
42726;SDS011;28372;56.832;60.658;2023-02-13T01:19:48;7.93;;;3.85;;
42726;SDS011;28372;56.832;60.658;2023-02-13T01:22:16;10.55;;;5.20;;
42726;SDS011;28372;56.832;60.658;2023-02-13T01:24:44;11.55;;;6.35;;
42726;SDS011;28372;56.832;60.658;2023-02-13T01:27:11;9.70;;;4.43;;
42726;SDS011;28372;56.832;60.658;2023-02-13T01:29:39;10.38;;;4.85;;
42726;SDS011;28372;56.832;60.658;2023-02-13T01:32:06;11.77;;;4.97;;
42726;SDS011;28372;56.832;60.658;2023-02-13T01:34:34;5.80;;;3.17;;
42726;SDS011;28372;56.832;60.658;2023-02-13T01:37:02;12.23;;;6.10;;
42726;SDS011;28372;56.832;60.658;2023-02-13T01:39:30;10.00;;;4.47;;
42726;SDS011;28372;56.832;60.658;2023-02-13T01:41:58;15.68;;;7.90;;
42726;SDS011;28372;56.832;60.658;2023-02-13T01:48:01;11.77;;;5.65;;
42726;SDS011;28372;56.832;60.658;2023-02-13T01:50:20;15.63;;;6.68;;
42726;SDS011;28372;56.832;60.658;2023-02-13T01:52:58;12.10;;;5.00;;
42726;SDS011;28372;56.832;60.658;2023-02-13T01:55:31;12.13;;;7.03;;
42726;SDS011;28372;56.832;60.658;2023-02-13T01:58:10;12.95;;;6.07;;
42726;SDS011;28372;56.832;60.658;2023-02-13T02:00:39;8.90;;;3.67;;
42726;SDS011;28372;56.832;60.658;2023-02-13T02:03:10;8.80;;;4.45;;
42726;SDS011;28372;56.832;60.658;2023-02-13T02:05:41;9.52;;;4.13;;
42726;SDS011;28372;56.832;60.658;2023-02-13T02:08:10;8.65;;;4.57;;
42726;SDS011;28372;56.832;60.658;2023-02-13T02:10:40;12.40;;;6.43;;
42726;SDS011;28372;56.832;60.658;2023-02-13T02:13:12;12.20;;;5.10;;
42726;SDS011;28372;56.832;60.658;2023-02-13T02:15:45;12.90;;;5.80;;
42726;SDS011;28372;56.832;60.658;2023-02-13T02:18:14;12.45;;;5.40;;
42726;SDS011;28372;56.832;60.658;2023-02-13T02:29:39;8.82;;;5.07;;
42726;SDS011;28372;56.832;60.658;2023-02-13T02:40:40;14.38;;;6.30;;
42726;SDS011;28372;56.832;60.658;2023-02-13T02:46:17;7.75;;;3.67;;
42726;SDS011;28372;56.832;60.658;2023-02-13T02:52:28;10.73;;;4.93;;
42726;SDS011;28372;56.832;60.658;2023-02-13T02:54:46;11.70;;;5.20;;
42726;SDS011;28372;56.832;60.658;2023-02-13T02:57:44;13.75;;;6.05;;
42726;SDS011;28372;56.832;60.658;2023-02-13T03:00:41;15.63;;;5.80;;
42726;SDS011;28372;56.832;60.658;2023-02-13T03:03:28;9.75;;;4.50;;
42726;SDS011;28372;56.832;60.658;2023-02-13T03:06:26;11.52;;;5.28;;
42726;SDS011;28372;56.832;60.658;2023-02-13T03:09:00;10.25;;;5.18;;
42726;SDS011;28372;56.832;60.658;2023-02-13T03:11:52;13.10;;;5.80;;
42726;SDS011;28372;56.832;60.658;2023-02-13T03:14:40;11.85;;;4.60;;
42726;SDS011;28372;56.832;60.658;2023-02-13T03:17:12;10.13;;;5.03;;
42726;SDS011;28372;56.832;60.658;2023-02-13T03:39:48;12.88;;;5.78;;
42726;SDS011;28372;56.832;60.658;2023-02-13T03:42:31;9.25;;;3.88;;
42726;SDS011;28372;56.832;60.658;2023-02-13T03:45:21;5.95;;;2.25;;
42726;SDS011;28372;56.832;60.658;2023-02-13T03:48:14;7.93;;;4.25;;
42726;SDS011;28372;56.832;60.658;2023-02-13T03:51:03;12.70;;;5.05;;
42726;SDS011;28372;56.832;60.658;2023-02-13T03:53:35;6.22;;;2.92;;
42726;SDS011;28372;56.832;60.658;2023-02-13T03:56:06;7.25;;;3.05;;
42726;SDS011;28372;56.832;60.658;2023-02-13T03:58:54;5.38;;;2.65;;
42726;SDS011;28372;56.832;60.658;2023-02-13T04:01:53;8.63;;;2.95;;
42726;SDS011;28372;56.832;60.658;2023-02-13T04:07:07;12.73;;;5.90;;
42726;SDS011;28372;56.832;60.658;2023-02-13T04:09:55;12.52;;;4.53;;
42726;SDS011;28372;56.832;60.658;2023-02-13T04:15:35;11.57;;;4.30;;
42726;SDS011;28372;56.832;60.658;2023-02-13T04:20:45;9.70;;;4.68;;
42726;SDS011;28372;56.832;60.658;2023-02-13T04:23:13;10.60;;;4.53;;
42726;SDS011;28372;56.832;60.658;2023-02-13T04:25:43;11.18;;;4.93;;
42726;SDS011;28372;56.832;60.658;2023-02-13T04:28:14;11.30;;;5.57;;
42726;SDS011;28372;56.832;60.658;2023-02-13T04:30:42;11.43;;;6.40;;
42726;SDS011;28372;56.832;60.658;2023-02-13T04:33:10;10.82;;;4.68;;
42726;SDS011;28372;56.832;60.658;2023-02-13T04:35:37;11.80;;;4.07;;
42726;SDS011;28372;56.832;60.658;2023-02-13T04:38:05;9.98;;;4.38;;
42726;SDS011;28372;56.832;60.658;2023-02-13T04:40:33;14.88;;;6.68;;
42726;SDS011;28372;56.832;60.658;2023-02-13T04:43:00;10.75;;;4.30;;
42726;SDS011;28372;56.832;60.658;2023-02-13T04:45:28;8.25;;;4.35;;
42726;SDS011;28372;56.832;60.658;2023-02-13T04:47:57;8.07;;;4.00;;
42726;SDS011;28372;56.832;60.658;2023-02-13T04:50:25;12.93;;;5.57;;
42726;SDS011;28372;56.832;60.658;2023-02-13T04:52:53;16.23;;;5.55;;
42726;SDS011;28372;56.832;60.658;2023-02-13T04:55:25;9.65;;;4.75;;
42726;SDS011;28372;56.832;60.658;2023-02-13T04:57:54;12.02;;;5.63;;
42726;SDS011;28372;56.832;60.658;2023-02-13T05:00:23;11.10;;;5.30;;
42726;SDS011;28372;56.832;60.658;2023-02-13T05:02:53;11.10;;;4.97;;
42726;SDS011;28372;56.832;60.658;2023-02-13T05:05:26;12.57;;;6.50;;
42726;SDS011;28372;56.832;60.658;2023-02-13T05:07:54;10.60;;;5.63;;
42726;SDS011;28372;56.832;60.658;2023-02-13T05:10:21;13.43;;;5.88;;
42726;SDS011;28372;56.832;60.658;2023-02-13T05:12:49;14.60;;;7.57;;
42726;SDS011;28372;56.832;60.658;2023-02-13T05:15:17;11.63;;;5.65;;
42726;SDS011;28372;56.832;60.658;2023-02-13T05:17:45;11.75;;;6.07;;
42726;SDS011;28372;56.832;60.658;2023-02-13T05:20:13;11.88;;;6.00;;
42726;SDS011;28372;56.832;60.658;2023-02-13T05:22:48;12.18;;;5.63;;
42726;SDS011;28372;56.832;60.658;2023-02-13T05:25:36;10.18;;;5.35;;
42726;SDS011;28372;56.832;60.658;2023-02-13T05:28:05;13.43;;;6.45;;
42726;SDS011;28372;56.832;60.658;2023-02-13T05:30:53;10.15;;;5.38;;
42726;SDS011;28372;56.832;60.658;2023-02-13T05:33:21;12.57;;;6.03;;
42726;SDS011;28372;56.832;60.658;2023-02-13T05:35:49;12.32;;;6.35;;
42726;SDS011;28372;56.832;60.658;2023-02-13T05:38:16;11.30;;;5.93;;
42726;SDS011;28372;56.832;60.658;2023-02-13T05:40:44;12.38;;;5.55;;
42726;SDS011;28372;56.832;60.658;2023-02-13T05:43:12;10.98;;;5.30;;
42726;SDS011;28372;56.832;60.658;2023-02-13T05:45:39;8.90;;;4.72;;
42726;SDS011;28372;56.832;60.658;2023-02-13T05:48:07;13.88;;;6.55;;
42726;SDS011;28372;56.832;60.658;2023-02-13T05:50:35;10.05;;;4.90;;
42726;SDS011;28372;56.832;60.658;2023-02-13T05:53:02;12.55;;;6.40;;
42726;SDS011;28372;56.832;60.658;2023-02-13T05:55:30;10.00;;;4.68;;
42726;SDS011;28372;56.832;60.658;2023-02-13T05:57:58;11.30;;;5.65;;
42726;SDS011;28372;56.832;60.658;2023-02-13T06:00:25;11.00;;;4.40;;
42726;SDS011;28372;56.832;60.658;2023-02-13T06:02:53;12.80;;;5.47;;
42726;SDS011;28372;56.832;60.658;2023-02-13T06:05:20;10.88;;;5.97;;
42726;SDS011;28372;56.832;60.658;2023-02-13T06:07:48;10.57;;;5.25;;
42726;SDS011;28372;56.832;60.658;2023-02-13T06:10:17;11.75;;;6.72;;
42726;SDS011;28372;56.832;60.658;2023-02-13T06:12:45;9.73;;;4.85;;
42726;SDS011;28372;56.832;60.658;2023-02-13T06:15:12;12.57;;;5.55;;
42726;SDS011;28372;56.832;60.658;2023-02-13T06:17:40;9.68;;;5.18;;
42726;SDS011;28372;56.832;60.658;2023-02-13T06:20:08;11.63;;;5.63;;
42726;SDS011;28372;56.832;60.658;2023-02-13T06:22:35;11.20;;;5.28;;
42726;SDS011;28372;56.832;60.658;2023-02-13T06:25:03;11.95;;;6.10;;
42726;SDS011;28372;56.832;60.658;2023-02-13T06:27:31;11.25;;;6.57;;
42726;SDS011;28372;56.832;60.658;2023-02-13T06:29:59;9.35;;;4.72;;
42726;SDS011;28372;56.832;60.658;2023-02-13T06:32:27;11.35;;;4.65;;
42726;SDS011;28372;56.832;60.658;2023-02-13T06:34:55;10.55;;;6.20;;
42726;SDS011;28372;56.832;60.658;2023-02-13T06:37:22;9.45;;;5.10;;
42726;SDS011;28372;56.832;60.658;2023-02-13T06:39:50;10.57;;;5.68;;
42726;SDS011;28372;56.832;60.658;2023-02-13T06:42:18;9.00;;;4.97;;
42726;SDS011;28372;56.832;60.658;2023-02-13T06:44:46;11.27;;;4.43;;
42726;SDS011;28372;56.832;60.658;2023-02-13T06:47:14;8.13;;;4.05;;
42726;SDS011;28372;56.832;60.658;2023-02-13T06:49:41;11.18;;;5.88;;
42726;SDS011;28372;56.832;60.658;2023-02-13T06:52:09;8.98;;;5.72;;
42726;SDS011;28372;56.832;60.658;2023-02-13T06:54:37;8.85;;;5.00;;
42726;SDS011;28372;56.832;60.658;2023-02-13T06:57:14;11.27;;;4.88;;
42726;SDS011;28372;56.832;60.658;2023-02-13T06:59:42;7.50;;;3.53;;
42726;SDS011;28372;56.832;60.658;2023-02-13T07:02:10;10.45;;;4.22;;
42726;SDS011;28372;56.832;60.658;2023-02-13T07:04:38;8.25;;;3.97;;
42726;SDS011;28372;56.832;60.658;2023-02-13T07:07:06;9.80;;;4.28;;
42726;SDS011;28372;56.832;60.658;2023-02-13T07:09:35;7.82;;;4.22;;
42726;SDS011;28372;56.832;60.658;2023-02-13T07:12:03;7.55;;;3.33;;
42726;SDS011;28372;56.832;60.658;2023-02-13T07:14:31;9.85;;;4.10;;
42726;SDS011;28372;56.832;60.658;2023-02-13T07:16:59;7.63;;;3.35;;
42726;SDS011;28372;56.832;60.658;2023-02-13T07:19:26;10.88;;;5.68;;
42726;SDS011;28372;56.832;60.658;2023-02-13T07:21:54;10.15;;;5.32;;
42726;SDS011;28372;56.832;60.658;2023-02-13T07:24:22;9.75;;;4.82;;
42726;SDS011;28372;56.832;60.658;2023-02-13T07:26:49;10.85;;;4.78;;
42726;SDS011;28372;56.832;60.658;2023-02-13T07:29:17;8.43;;;3.58;;
42726;SDS011;28372;56.832;60.658;2023-02-13T07:31:45;9.35;;;3.38;;
42726;SDS011;28372;56.832;60.658;2023-02-13T07:34:12;4.80;;;2.75;;
42726;SDS011;28372;56.832;60.658;2023-02-13T07:36:40;9.70;;;3.80;;
42726;SDS011;28372;56.832;60.658;2023-02-13T07:39:08;11.68;;;4.93;;
42726;SDS011;28372;56.832;60.658;2023-02-13T07:41:35;10.27;;;3.92;;
42726;SDS011;28372;56.832;60.658;2023-02-13T07:44:05;8.38;;;3.72;;
42726;SDS011;28372;56.832;60.658;2023-02-13T07:46:33;13.73;;;4.85;;
42726;SDS011;28372;56.832;60.658;2023-02-13T07:49:01;20.70;;;7.97;;
42726;SDS011;28372;56.832;60.658;2023-02-13T07:51:28;11.82;;;4.53;;
42726;SDS011;28372;56.832;60.658;2023-02-13T07:53:56;10.93;;;4.22;;
42726;SDS011;28372;56.832;60.658;2023-02-13T07:56:23;9.90;;;4.30;;
42726;SDS011;28372;56.832;60.658;2023-02-13T07:58:51;11.93;;;4.47;;
42726;SDS011;28372;56.832;60.658;2023-02-13T08:01:19;13.02;;;5.85;;
42726;SDS011;28372;56.832;60.658;2023-02-13T08:03:47;12.00;;;4.72;;
42726;SDS011;28372;56.832;60.658;2023-02-13T08:06:20;13.35;;;5.22;;
42726;SDS011;28372;56.832;60.658;2023-02-13T08:08:48;9.48;;;3.92;;
42726;SDS011;28372;56.832;60.658;2023-02-13T08:11:37;9.35;;;4.32;;
42726;SDS011;28372;56.832;60.658;2023-02-13T08:14:21;7.80;;;2.95;;
42726;SDS011;28372;56.832;60.658;2023-02-13T08:16:50;11.00;;;5.38;;
42726;SDS011;28372;56.832;60.658;2023-02-13T08:19:19;8.73;;;3.50;;
42726;SDS011;28372;56.832;60.658;2023-02-13T08:21:47;8.00;;;4.20;;
42726;SDS011;28372;56.832;60.658;2023-02-13T08:24:15;14.00;;;6.13;;
42726;SDS011;28372;56.832;60.658;2023-02-13T08:26:42;17.83;;;8.40;;
42726;SDS011;28372;56.832;60.658;2023-02-13T08:29:10;14.23;;;4.57;;
42726;SDS011;28372;56.832;60.658;2023-02-13T08:31:38;16.17;;;6.72;;
42726;SDS011;28372;56.832;60.658;2023-02-13T08:34:05;11.95;;;4.50;;
42726;SDS011;28372;56.832;60.658;2023-02-13T08:36:33;15.07;;;4.82;;
42726;SDS011;28372;56.832;60.658;2023-02-13T08:39:01;7.20;;;2.33;;
42726;SDS011;28372;56.832;60.658;2023-02-13T08:41:28;13.73;;;4.30;;
42726;SDS011;28372;56.832;60.658;2023-02-13T08:43:56;10.63;;;3.78;;
42726;SDS011;28372;56.832;60.658;2023-02-13T08:46:24;12.93;;;4.68;;
42726;SDS011;28372;56.832;60.658;2023-02-13T08:48:51;11.23;;;4.60;;
42726;SDS011;28372;56.832;60.658;2023-02-13T08:51:19;7.50;;;2.63;;
42726;SDS011;28372;56.832;60.658;2023-02-13T08:53:47;15.32;;;5.28;;
42726;SDS011;28372;56.832;60.658;2023-02-13T08:56:14;2.55;;;1.17;;
42726;SDS011;28372;56.832;60.658;2023-02-13T08:58:43;2.67;;;1.88;;
42726;SDS011;28372;56.832;60.658;2023-02-13T09:01:10;10.82;;;4.90;;
42726;SDS011;28372;56.832;60.658;2023-02-13T09:03:38;9.27;;;3.60;;
42726;SDS011;28372;56.832;60.658;2023-02-13T09:06:06;4.70;;;1.52;;
42726;SDS011;28372;56.832;60.658;2023-02-13T09:08:34;4.10;;;1.80;;
42726;SDS011;28372;56.832;60.658;2023-02-13T09:11:02;5.38;;;2.20;;
42726;SDS011;28372;56.832;60.658;2023-02-13T09:13:33;5.68;;;2.03;;
42726;SDS011;28372;56.832;60.658;2023-02-13T09:16:04;2.95;;;1.70;;
42726;SDS011;28372;56.832;60.658;2023-02-13T09:18:33;5.68;;;2.50;;
42726;SDS011;28372;56.832;60.658;2023-02-13T09:21:05;6.13;;;2.28;;
42726;SDS011;28372;56.832;60.658;2023-02-13T09:23:36;6.07;;;2.67;;
42726;SDS011;28372;56.832;60.658;2023-02-13T09:26:07;5.00;;;2.38;;
42726;SDS011;28372;56.832;60.658;2023-02-13T09:28:39;5.53;;;2.30;;
42726;SDS011;28372;56.832;60.658;2023-02-13T09:31:08;2.83;;;1.45;;
42726;SDS011;28372;56.832;60.658;2023-02-13T09:33:37;3.95;;;1.85;;
42726;SDS011;28372;56.832;60.658;2023-02-13T09:36:23;5.95;;;2.33;;
42726;SDS011;28372;56.832;60.658;2023-02-13T09:38:52;4.65;;;1.77;;
42726;SDS011;28372;56.832;60.658;2023-02-13T09:43:55;6.60;;;2.60;;
42726;SDS011;28372;56.832;60.658;2023-02-13T09:46:33;3.53;;;1.83;;
42726;SDS011;28372;56.832;60.658;2023-02-13T09:51:36;5.10;;;2.45;;
42726;SDS011;28372;56.832;60.658;2023-02-13T09:54:04;6.32;;;3.15;;
42726;SDS011;28372;56.832;60.658;2023-02-13T10:01:54;8.70;;;4.00;;
42726;SDS011;28372;56.832;60.658;2023-02-13T10:04:30;7.50;;;3.28;;
42726;SDS011;28372;56.832;60.658;2023-02-13T10:07:09;4.95;;;2.60;;
42726;SDS011;28372;56.832;60.658;2023-02-13T10:21:11;4.10;;;1.95;;
42726;SDS011;28372;56.832;60.658;2023-02-13T10:23:45;3.78;;;1.77;;
42726;SDS011;28372;56.832;60.658;2023-02-13T10:26:18;9.05;;;3.13;;
42726;SDS011;28372;56.832;60.658;2023-02-13T10:34:23;7.55;;;2.60;;
42726;SDS011;28372;56.832;60.658;2023-02-13T10:36:53;3.22;;;1.30;;
42726;SDS011;28372;56.832;60.658;2023-02-13T10:39:23;5.28;;;1.63;;
42726;SDS011;28372;56.832;60.658;2023-02-13T10:41:53;2.97;;;1.60;;
42726;SDS011;28372;56.832;60.658;2023-02-13T11:01:46;5.60;;;2.17;;
42726;SDS011;28372;56.832;60.658;2023-02-13T11:04:20;4.18;;;1.65;;
42726;SDS011;28372;56.832;60.658;2023-02-13T11:09:23;5.82;;;2.22;;
42726;SDS011;28372;56.832;60.658;2023-02-13T11:11:52;3.17;;;1.40;;
42726;SDS011;28372;56.832;60.658;2023-02-13T11:14:24;2.13;;;0.73;;
42726;SDS011;28372;56.832;60.658;2023-02-13T11:19:46;3.13;;;1.20;;
42726;SDS011;28372;56.832;60.658;2023-02-13T11:22:32;2.72;;;1.38;;
42726;SDS011;28372;56.832;60.658;2023-02-13T11:25:21;2.95;;;1.30;;
42726;SDS011;28372;56.832;60.658;2023-02-13T11:28:14;3.72;;;1.48;;
42726;SDS011;28372;56.832;60.658;2023-02-13T11:30:47;3.60;;;1.70;;
42726;SDS011;28372;56.832;60.658;2023-02-13T11:35:46;5.43;;;2.33;;
42726;SDS011;28372;56.832;60.658;2023-02-13T11:40:45;5.35;;;1.50;;
42726;SDS011;28372;56.832;60.658;2023-02-13T11:43:43;8.55;;;2.63;;
42726;SDS011;28372;56.832;60.658;2023-02-13T11:46:23;8.50;;;2.40;;
42726;SDS011;28372;56.832;60.658;2023-02-13T11:49:03;7.18;;;2.53;;
42726;SDS011;28372;56.832;60.658;2023-02-13T11:51:43;4.55;;;1.88;;
42726;SDS011;28372;56.832;60.658;2023-02-13T11:56:59;7.40;;;2.20;;
42726;SDS011;28372;56.832;60.658;2023-02-13T11:59:37;4.45;;;1.67;;
42726;SDS011;28372;56.832;60.658;2023-02-13T12:02:15;5.53;;;1.90;;
42726;SDS011;28372;56.832;60.658;2023-02-13T12:07:47;7.60;;;2.35;;
42726;SDS011;28372;56.832;60.658;2023-02-13T12:10:23;6.93;;;2.00;;
42726;SDS011;28372;56.832;60.658;2023-02-13T12:12:53;6.45;;;2.60;;
42726;SDS011;28372;56.832;60.658;2023-02-13T12:15:44;5.18;;;2.30;;
42726;SDS011;28372;56.832;60.658;2023-02-13T12:18:28;6.40;;;2.20;;
42726;SDS011;28372;56.832;60.658;2023-02-13T12:21:22;7.95;;;2.28;;
42726;SDS011;28372;56.832;60.658;2023-02-13T12:24:01;8.60;;;2.67;;
42726;SDS011;28372;56.832;60.658;2023-02-13T12:45:36;3.30;;;1.65;;
42726;SDS011;28372;56.832;60.658;2023-02-13T13:01:58;6.13;;;2.40;;
42726;SDS011;28372;56.832;60.658;2023-02-13T13:05:00;7.55;;;2.88;;
42726;SDS011;28372;56.832;60.658;2023-02-13T13:07:51;7.35;;;3.13;;
42726;SDS011;28372;56.832;60.658;2023-02-13T13:18:35;6.85;;;2.78;;
42726;SDS011;28372;56.832;60.658;2023-02-13T13:21:34;5.57;;;2.30;;
42726;SDS011;28372;56.832;60.658;2023-02-13T13:26:45;7.43;;;3.03;;
42726;SDS011;28372;56.832;60.658;2023-02-13T13:29:20;9.93;;;3.03;;
42726;SDS011;28372;56.832;60.658;2023-02-13T13:31:56;9.32;;;2.92;;
42726;SDS011;28372;56.832;60.658;2023-02-13T13:34:28;8.30;;;3.45;;
42726;SDS011;28372;56.832;60.658;2023-02-13T13:39:42;7.07;;;3.30;;
42726;SDS011;28372;56.832;60.658;2023-02-13T13:42:24;10.65;;;3.00;;
42726;SDS011;28372;56.832;60.658;2023-02-13T13:45:03;9.35;;;3.13;;
42726;SDS011;28372;56.832;60.658;2023-02-13T13:50:46;7.47;;;3.50;;
42726;SDS011;28372;56.832;60.658;2023-02-13T13:53:16;8.25;;;3.95;;
42726;SDS011;28372;56.832;60.658;2023-02-13T13:58:23;8.27;;;3.80;;
42726;SDS011;28372;56.832;60.658;2023-02-13T14:03:58;4.70;;;2.53;;
42726;SDS011;28372;56.832;60.658;2023-02-13T14:09:43;4.68;;;2.35;;
42726;SDS011;28372;56.832;60.658;2023-02-13T14:12:49;11.98;;;4.55;;
42726;SDS011;28372;56.832;60.658;2023-02-13T14:14:57;9.10;;;2.95;;
42726;SDS011;28372;56.832;60.658;2023-02-13T14:20:56;4.40;;;2.28;;
42726;SDS011;28372;56.832;60.658;2023-02-13T14:23:24;6.72;;;3.08;;
42726;SDS011;28372;56.832;60.658;2023-02-13T14:34:03;8.48;;;2.95;;
42726;SDS011;28372;56.832;60.658;2023-02-13T14:36:35;7.88;;;3.50;;
42726;SDS011;28372;56.832;60.658;2023-02-13T14:39:06;5.63;;;2.50;;
42726;SDS011;28372;56.832;60.658;2023-02-13T14:50:14;9.75;;;3.92;;
42726;SDS011;28372;56.832;60.658;2023-02-13T14:52:46;9.13;;;2.80;;
42726;SDS011;28372;56.832;60.658;2023-02-13T14:57:51;9.00;;;3.65;;
42726;SDS011;28372;56.832;60.658;2023-02-13T15:03:20;7.50;;;3.20;;
42726;SDS011;28372;56.832;60.658;2023-02-13T15:05:42;11.48;;;4.65;;
42726;SDS011;28372;56.832;60.658;2023-02-13T15:08:25;2.47;;;1.55;;
42726;SDS011;28372;56.832;60.658;2023-02-13T15:11:00;9.77;;;3.60;;
42726;SDS011;28372;56.832;60.658;2023-02-13T15:13:32;5.22;;;2.22;;
42726;SDS011;28372;56.832;60.658;2023-02-13T15:16:08;5.13;;;2.50;;
42726;SDS011;28372;56.832;60.658;2023-02-13T15:18:47;5.30;;;2.05;;
42726;SDS011;28372;56.832;60.658;2023-02-13T15:21:19;3.38;;;1.90;;
42726;SDS011;28372;56.832;60.658;2023-02-13T15:23:53;4.82;;;2.22;;
42726;SDS011;28372;56.832;60.658;2023-02-13T15:26:24;6.72;;;2.95;;
42726;SDS011;28372;56.832;60.658;2023-02-13T15:29:04;5.65;;;3.17;;
42726;SDS011;28372;56.832;60.658;2023-02-13T15:31:55;6.00;;;3.40;;
42726;SDS011;28372;56.832;60.658;2023-02-13T15:34:28;8.23;;;3.00;;
42726;SDS011;28372;56.832;60.658;2023-02-13T15:37:01;11.85;;;6.88;;
42726;SDS011;28372;56.832;60.658;2023-02-13T15:39:29;7.97;;;3.53;;
42726;SDS011;28372;56.832;60.658;2023-02-13T15:41:58;10.25;;;6.40;;
42726;SDS011;28372;56.832;60.658;2023-02-13T15:47:05;7.20;;;3.30;;
42726;SDS011;28372;56.832;60.658;2023-02-13T15:49:38;5.20;;;2.42;;
42726;SDS011;28372;56.832;60.658;2023-02-13T15:52:14;4.43;;;2.33;;
42726;SDS011;28372;56.832;60.658;2023-02-13T15:54:53;4.65;;;2.72;;
42726;SDS011;28372;56.832;60.658;2023-02-13T15:57:22;6.70;;;3.72;;
42726;SDS011;28372;56.832;60.658;2023-02-13T15:59:54;6.65;;;2.78;;
42726;SDS011;28372;56.832;60.658;2023-02-13T16:02:32;2.97;;;1.50;;
42726;SDS011;28372;56.832;60.658;2023-02-13T16:05:07;4.70;;;2.33;;
42726;SDS011;28372;56.832;60.658;2023-02-13T16:07:49;6.93;;;3.15;;
42726;SDS011;28372;56.832;60.658;2023-02-13T16:10:24;9.10;;;3.13;;
42726;SDS011;28372;56.832;60.658;2023-02-13T16:13:06;7.45;;;3.38;;
42726;SDS011;28372;56.832;60.658;2023-02-13T16:15:42;3.60;;;1.55;;
42726;SDS011;28372;56.832;60.658;2023-02-13T16:18:16;3.78;;;1.73;;
42726;SDS011;28372;56.832;60.658;2023-02-13T16:20:46;6.18;;;2.95;;
42726;SDS011;28372;56.832;60.658;2023-02-13T16:23:22;3.38;;;1.40;;
42726;SDS011;28372;56.832;60.658;2023-02-13T16:25:50;3.40;;;1.48;;
42726;SDS011;28372;56.832;60.658;2023-02-13T16:28:20;5.15;;;2.58;;
42726;SDS011;28372;56.832;60.658;2023-02-13T16:30:57;6.30;;;2.90;;
42726;SDS011;28372;56.832;60.658;2023-02-13T16:33:27;5.22;;;1.70;;
42726;SDS011;28372;56.832;60.658;2023-02-13T16:35:59;2.58;;;1.20;;
42726;SDS011;28372;56.832;60.658;2023-02-13T16:38:44;5.38;;;2.60;;
42726;SDS011;28372;56.832;60.658;2023-02-13T16:43:58;6.60;;;1.90;;
42726;SDS011;28372;56.832;60.658;2023-02-13T16:46:38;3.15;;;1.48;;
42726;SDS011;28372;56.832;60.658;2023-02-13T16:51:41;7.22;;;3.10;;
42726;SDS011;28372;56.832;60.658;2023-02-13T16:56:56;8.05;;;4.00;;
42726;SDS011;28372;56.832;60.658;2023-02-13T17:02:23;4.53;;;2.33;;
42726;SDS011;28372;56.832;60.658;2023-02-13T17:05:14;5.30;;;2.80;;
42726;SDS011;28372;56.832;60.658;2023-02-13T17:07:49;4.90;;;2.45;;
42726;SDS011;28372;56.832;60.658;2023-02-13T17:12:54;7.65;;;3.13;;
42726;SDS011;28372;56.832;60.658;2023-02-13T17:15:25;6.22;;;2.83;;
42726;SDS011;28372;56.832;60.658;2023-02-13T17:17:54;6.22;;;3.40;;
42726;SDS011;28372;56.832;60.658;2023-02-13T17:20:23;6.10;;;2.25;;
42726;SDS011;28372;56.832;60.658;2023-02-13T17:22:54;5.95;;;3.05;;
42726;SDS011;28372;56.832;60.658;2023-02-13T17:25:24;6.93;;;3.20;;
42726;SDS011;28372;56.832;60.658;2023-02-13T17:27:58;9.60;;;4.63;;
42726;SDS011;28372;56.832;60.658;2023-02-13T17:30:50;10.43;;;5.03;;
42726;SDS011;28372;56.832;60.658;2023-02-13T17:33:27;9.60;;;4.28;;
42726;SDS011;28372;56.832;60.658;2023-02-13T17:35:57;9.00;;;4.47;;
42726;SDS011;28372;56.832;60.658;2023-02-13T17:38:24;6.68;;;3.38;;
42726;SDS011;28372;56.832;60.658;2023-02-13T17:40:52;9.07;;;4.75;;
42726;SDS011;28372;56.832;60.658;2023-02-13T17:43:20;6.97;;;3.13;;
42726;SDS011;28372;56.832;60.658;2023-02-13T17:45:48;6.07;;;2.45;;
42726;SDS011;28372;56.832;60.658;2023-02-13T17:48:16;7.22;;;3.63;;
42726;SDS011;28372;56.832;60.658;2023-02-13T17:50:44;7.18;;;3.63;;
42726;SDS011;28372;56.832;60.658;2023-02-13T17:55:51;8.00;;;4.07;;
42726;SDS011;28372;56.832;60.658;2023-02-13T17:58:18;9.00;;;4.53;;
42726;SDS011;28372;56.832;60.658;2023-02-13T18:00:46;5.25;;;2.47;;
42726;SDS011;28372;56.832;60.658;2023-02-13T18:03:14;6.60;;;3.13;;
42726;SDS011;28372;56.832;60.658;2023-02-13T18:05:44;6.47;;;2.30;;
42726;SDS011;28372;56.832;60.658;2023-02-13T18:08:14;7.32;;;4.10;;
42726;SDS011;28372;56.832;60.658;2023-02-13T18:10:42;7.40;;;3.38;;
42726;SDS011;28372;56.832;60.658;2023-02-13T18:13:10;6.80;;;3.65;;
42726;SDS011;28372;56.832;60.658;2023-02-13T18:15:39;4.65;;;1.75;;
42726;SDS011;28372;56.832;60.658;2023-02-13T18:18:09;3.95;;;2.00;;
42726;SDS011;28372;56.832;60.658;2023-02-13T18:20:37;5.28;;;2.30;;
42726;SDS011;28372;56.832;60.658;2023-02-13T18:23:06;3.67;;;1.63;;
42726;SDS011;28372;56.832;60.658;2023-02-13T18:25:34;5.07;;;2.08;;
42726;SDS011;28372;56.832;60.658;2023-02-13T18:28:02;5.80;;;2.67;;
42726;SDS011;28372;56.832;60.658;2023-02-13T18:30:30;5.18;;;2.55;;
42726;SDS011;28372;56.832;60.658;2023-02-13T18:32:57;4.55;;;2.50;;
42726;SDS011;28372;56.832;60.658;2023-02-13T18:35:25;6.90;;;3.35;;